sensor_id;sensor_type;location;lat;lon;timestamp;pressure;altitude;pressure_sealevel;temperature;humidity
13013;BME280;22580;57.670;12.006;2022-10-12T00:00:57;101900.84;;;16.11;92.43
13013;BME280;22580;57.670;12.006;2022-10-12T00:03:26;101876.59;;;16.11;91.87
13013;BME280;22580;57.670;12.006;2022-10-12T00:06:02;101878.34;;;16.23;91.08
13013;BME280;22580;57.670;12.006;2022-10-12T00:08:30;101893.44;;;16.26;91.63
13013;BME280;22580;57.670;12.006;2022-10-12T00:10:57;101895.63;;;16.21;91.73
13013;BME280;22580;57.670;12.006;2022-10-12T00:13:24;101895.28;;;16.25;91.50
13013;BME280;22580;57.670;12.006;2022-10-12T00:15:51;101906.94;;;16.26;91.59
13013;BME280;22580;57.670;12.006;2022-10-12T00:18:22;101902.75;;;16.22;91.72
13013;BME280;22580;57.670;12.006;2022-10-12T00:21:01;101895.84;;;16.18;92.26
13013;BME280;22580;57.670;12.006;2022-10-12T00:23:28;101899.38;;;16.07;92.75
13013;BME280;22580;57.670;12.006;2022-10-12T00:25:59;101903.50;;;16.00;93.18
13013;BME280;22580;57.670;12.006;2022-10-12T00:28:26;101923.28;;;15.64;95.08
13013;BME280;22580;57.670;12.006;2022-10-12T00:30:53;101902.81;;;15.85;94.42
13013;BME280;22580;57.670;12.006;2022-10-12T00:33:20;101909.97;;;15.73;94.89
13013;BME280;22580;57.670;12.006;2022-10-12T00:35:47;101901.38;;;15.68;95.13
13013;BME280;22580;57.670;12.006;2022-10-12T00:38:15;101903.63;;;15.74;95.60
13013;BME280;22580;57.670;12.006;2022-10-12T00:40:42;101888.47;;;15.61;95.86
13013;BME280;22580;57.670;12.006;2022-10-12T00:43:24;101916.34;;;15.72;96.02
13013;BME280;22580;57.670;12.006;2022-10-12T00:45:51;101898.66;;;15.57;96.46
13013;BME280;22580;57.670;12.006;2022-10-12T00:48:18;101902.00;;;15.72;96.34
13013;BME280;22580;57.670;12.006;2022-10-12T00:50:45;101892.59;;;15.78;95.92
13013;BME280;22580;57.670;12.006;2022-10-12T00:53:15;101914.97;;;15.91;96.12
13013;BME280;22580;57.670;12.006;2022-10-12T00:55:46;101915.66;;;15.82;96.43
13013;BME280;22580;57.670;12.006;2022-10-12T00:58:15;101914.63;;;15.71;96.86
13013;BME280;22580;57.670;12.006;2022-10-12T01:00:42;101910.09;;;15.72;97.06
13013;BME280;22580;57.670;12.006;2022-10-12T01:03:16;101916.22;;;15.74;97.10
13013;BME280;22580;57.670;12.006;2022-10-12T01:05:43;101921.41;;;15.77;96.81
13013;BME280;22580;57.670;12.006;2022-10-12T01:08:10;101923.56;;;15.72;97.21
13013;BME280;22580;57.670;12.006;2022-10-12T01:10:39;101921.22;;;15.67;97.60
13013;BME280;22580;57.670;12.006;2022-10-12T01:13:06;101923.22;;;15.40;98.91
13013;BME280;22580;57.670;12.006;2022-10-12T01:15:36;101923.13;;;15.41;99.00
13013;BME280;22580;57.670;12.006;2022-10-12T01:18:12;101923.13;;;15.41;98.99
13013;BME280;22580;57.670;12.006;2022-10-12T01:20:52;101934.31;;;15.48;98.94
13013;BME280;22580;57.670;12.006;2022-10-12T01:26:42;101937.88;;;15.85;97.71
13013;BME280;22580;57.670;12.006;2022-10-12T01:29:28;101937.31;;;15.93;97.27
13013;BME280;22580;57.670;12.006;2022-10-12T01:32:03;101935.69;;;15.90;97.33
13013;BME280;22580;57.670;12.006;2022-10-12T01:34:39;101931.56;;;15.97;96.89
13013;BME280;22580;57.670;12.006;2022-10-12T01:37:14;101946.81;;;15.86;97.36
13013;BME280;22580;57.670;12.006;2022-10-12T01:39:48;101951.69;;;15.81;97.82
13013;BME280;22580;57.670;12.006;2022-10-12T01:42:20;101937.97;;;15.84;97.41
13013;BME280;22580;57.670;12.006;2022-10-12T01:44:49;101935.09;;;15.74;97.81
13013;BME280;22580;57.670;12.006;2022-10-12T01:47:18;101941.13;;;15.78;97.87
13013;BME280;22580;57.670;12.006;2022-10-12T01:49:45;101919.75;;;15.51;98.35
13013;BME280;22580;57.670;12.006;2022-10-12T01:52:22;101935.22;;;15.72;97.47
13013;BME280;22580;57.670;12.006;2022-10-12T01:55:02;101893.28;;;15.32;97.93
13013;BME280;22580;57.670;12.006;2022-10-12T01:57:37;101939.06;;;15.57;98.19
13013;BME280;22580;57.670;12.006;2022-10-12T02:00:11;101932.72;;;15.33;98.78
13013;BME280;22580;57.670;12.006;2022-10-12T02:02:51;101914.72;;;15.46;97.60
13013;BME280;22580;57.670;12.006;2022-10-12T02:05:26;101938.97;;;15.59;97.80
13013;BME280;22580;57.670;12.006;2022-10-12T02:08:01;101924.94;;;15.54;97.67
13013;BME280;22580;57.670;12.006;2022-10-12T02:10:35;101926.16;;;15.24;98.70
13013;BME280;22580;57.670;12.006;2022-10-12T02:13:06;101928.94;;;15.35;98.30
13013;BME280;22580;57.670;12.006;2022-10-12T02:15:36;101925.50;;;15.33;97.94
13013;BME280;22580;57.670;12.006;2022-10-12T02:18:07;101941.09;;;15.54;97.57
13013;BME280;22580;57.670;12.006;2022-10-12T02:20:37;101944.19;;;15.60;97.04
13013;BME280;22580;57.670;12.006;2022-10-12T02:23:04;101928.63;;;15.40;97.45
13013;BME280;22580;57.670;12.006;2022-10-12T02:25:36;101944.88;;;15.51;97.47
13013;BME280;22580;57.670;12.006;2022-10-12T02:28:09;101951.84;;;15.66;97.07
13013;BME280;22580;57.670;12.006;2022-10-12T02:30:43;101932.97;;;15.66;96.96
13013;BME280;22580;57.670;12.006;2022-10-12T02:33:17;101935.84;;;15.76;96.87
13013;BME280;22580;57.670;12.006;2022-10-12T02:35:50;101941.91;;;15.67;97.02
13013;BME280;22580;57.670;12.006;2022-10-12T02:38:21;101937.63;;;15.64;97.47
13013;BME280;22580;57.670;12.006;2022-10-12T02:40:56;101932.81;;;15.44;97.52
13013;BME280;22580;57.670;12.006;2022-10-12T02:43:28;101948.53;;;15.87;96.93
13013;BME280;22580;57.670;12.006;2022-10-12T02:46:00;101922.94;;;15.68;97.46
13013;BME280;22580;57.670;12.006;2022-10-12T02:48:32;101929.91;;;15.60;98.00
13013;BME280;22580;57.670;12.006;2022-10-12T02:51:00;101922.59;;;15.73;97.48
13013;BME280;22580;57.670;12.006;2022-10-12T02:53:29;101928.28;;;15.81;97.55
13013;BME280;22580;57.670;12.006;2022-10-12T02:56:00;101945.56;;;16.02;97.32
13013;BME280;22580;57.670;12.006;2022-10-12T02:58:27;101943.09;;;15.99;97.64
13013;BME280;22580;57.670;12.006;2022-10-12T03:00:54;101905.22;;;16.01;96.68
13013;BME280;22580;57.670;12.006;2022-10-12T03:03:21;101936.19;;;16.43;95.88
13013;BME280;22580;57.670;12.006;2022-10-12T03:05:50;101931.34;;;16.00;97.58
13013;BME280;22580;57.670;12.006;2022-10-12T03:08:16;101945.78;;;16.23;97.17
13013;BME280;22580;57.670;12.006;2022-10-12T03:10:45;101940.72;;;16.43;96.93
13013;BME280;22580;57.670;12.006;2022-10-12T03:13:12;101931.88;;;16.52;96.86
13013;BME280;22580;57.670;12.006;2022-10-12T03:15:40;101935.59;;;16.62;97.19
13013;BME280;22580;57.670;12.006;2022-10-12T03:18:08;101936.16;;;16.89;97.20
13013;BME280;22580;57.670;12.006;2022-10-12T03:20:34;101932.25;;;16.93;96.75
13013;BME280;22580;57.670;12.006;2022-10-12T03:23:03;101928.69;;;16.93;97.09
13013;BME280;22580;57.670;12.006;2022-10-12T03:25:30;101914.81;;;16.86;97.30
13013;BME280;22580;57.670;12.006;2022-10-12T03:27:58;101940.84;;;16.98;97.39
13013;BME280;22580;57.670;12.006;2022-10-12T03:30:26;101939.84;;;16.77;98.19
13013;BME280;22580;57.670;12.006;2022-10-12T03:32:53;101937.50;;;16.84;98.23
13013;BME280;22580;57.670;12.006;2022-10-12T03:35:27;101925.72;;;16.85;97.97
13013;BME280;22580;57.670;12.006;2022-10-12T03:37:54;101917.09;;;16.68;99.02
13013;BME280;22580;57.670;12.006;2022-10-12T03:40:22;101939.75;;;17.01;98.34
13013;BME280;22580;57.670;12.006;2022-10-12T03:42:50;101934.09;;;17.04;98.23
13013;BME280;22580;57.670;12.006;2022-10-12T03:45:17;101947.00;;;17.23;99.04
13013;BME280;22580;57.670;12.006;2022-10-12T03:50:48;101947.00;;;17.00;100.00
13013;BME280;22580;57.670;12.006;2022-10-12T03:53:15;101944.31;;;17.23;99.78
13013;BME280;22580;57.670;12.006;2022-10-12T03:55:44;101931.53;;;17.14;100.00
13013;BME280;22580;57.670;12.006;2022-10-12T03:58:12;101949.34;;;17.16;99.82
13013;BME280;22580;57.670;12.006;2022-10-12T04:00:39;101943.94;;;17.27;100.00
13013;BME280;22580;57.670;12.006;2022-10-12T04:03:06;101939.88;;;17.33;100.00
13013;BME280;22580;57.670;12.006;2022-10-12T04:05:33;101947.69;;;17.58;100.00
13013;BME280;22580;57.670;12.006;2022-10-12T04:08:01;101943.94;;;17.27;100.00
13013;BME280;22580;57.670;12.006;2022-10-12T04:10:28;101939.75;;;17.23;100.00
13013;BME280;22580;57.670;12.006;2022-10-12T04:12:57;101937.13;;;17.55;100.00
13013;BME280;22580;57.670;12.006;2022-10-12T04:15:24;101932.22;;;17.49;100.00
13013;BME280;22580;57.670;12.006;2022-10-12T04:17:50;101942.44;;;17.68;100.00
13013;BME280;22580;57.670;12.006;2022-10-12T04:20:18;101914.03;;;17.74;100.00
13013;BME280;22580;57.670;12.006;2022-10-12T04:22:46;101940.34;;;17.49;100.00
13013;BME280;22580;57.670;12.006;2022-10-12T04:25:13;101929.78;;;17.35;100.00
13013;BME280;22580;57.670;12.006;2022-10-12T04:27:40;101942.31;;;17.47;100.00
13013;BME280;22580;57.670;12.006;2022-10-12T04:30:12;101941.44;;;17.35;100.00
13013;BME280;22580;57.670;12.006;2022-10-12T04:32:40;101932.59;;;17.45;100.00
13013;BME280;22580;57.670;12.006;2022-10-12T04:35:07;101951.41;;;17.46;100.00
13013;BME280;22580;57.670;12.006;2022-10-12T04:37:34;101948.56;;;17.48;100.00
13013;BME280;22580;57.670;12.006;2022-10-12T04:40:01;101943.31;;;17.24;100.00
13013;BME280;22580;57.670;12.006;2022-10-12T04:42:28;101935.94;;;17.03;100.00
13013;BME280;22580;57.670;12.006;2022-10-12T04:44:55;101951.19;;;17.16;100.00
13013;BME280;22580;57.670;12.006;2022-10-12T04:47:23;101939.59;;;17.36;100.00
13013;BME280;22580;57.670;12.006;2022-10-12T04:49:50;101963.19;;;17.45;100.00
13013;BME280;22580;57.670;12.006;2022-10-12T04:52:21;101964.78;;;17.81;100.00
13013;BME280;22580;57.670;12.006;2022-10-12T04:54:48;101952.72;;;17.63;100.00
13013;BME280;22580;57.670;12.006;2022-10-12T04:57:15;101939.34;;;17.50;100.00
13013;BME280;22580;57.670;12.006;2022-10-12T04:59:42;101963.31;;;17.66;100.00
13013;BME280;22580;57.670;12.006;2022-10-12T05:02:09;101958.53;;;17.69;100.00
13013;BME280;22580;57.670;12.006;2022-10-12T05:04:37;101960.22;;;17.59;100.00
13013;BME280;22580;57.670;12.006;2022-10-12T05:07:04;101955.56;;;17.61;100.00
13013;BME280;22580;57.670;12.006;2022-10-12T05:09:31;101957.78;;;17.56;100.00
13013;BME280;22580;57.670;12.006;2022-10-12T05:12:00;101959.84;;;17.64;100.00
13013;BME280;22580;57.670;12.006;2022-10-12T05:14:27;101949.56;;;17.69;100.00
13013;BME280;22580;57.670;12.006;2022-10-12T05:16:54;101968.34;;;17.59;100.00
13013;BME280;22580;57.670;12.006;2022-10-12T05:19:21;101963.31;;;17.66;100.00
13013;BME280;22580;57.670;12.006;2022-10-12T05:21:50;101971.06;;;17.82;100.00
13013;BME280;22580;57.670;12.006;2022-10-12T05:24:17;101962.44;;;17.88;100.00
13013;BME280;22580;57.670;12.006;2022-10-12T05:26:44;101967.84;;;17.88;100.00
13013;BME280;22580;57.670;12.006;2022-10-12T05:29:11;101969.31;;;17.92;100.00
13013;BME280;22580;57.670;12.006;2022-10-12T05:31:38;101969.94;;;17.84;100.00
13013;BME280;22580;57.670;12.006;2022-10-12T05:34:04;101958.41;;;17.71;100.00
13013;BME280;22580;57.670;12.006;2022-10-12T05:36:31;101961.19;;;17.92;100.00
13013;BME280;22580;57.670;12.006;2022-10-12T05:39:03;101974.09;;;17.99;100.00
13013;BME280;22580;57.670;12.006;2022-10-12T05:41:31;101975.22;;;17.86;100.00
13013;BME280;22580;57.670;12.006;2022-10-12T05:43:58;101975.09;;;17.87;100.00
13013;BME280;22580;57.670;12.006;2022-10-12T05:46:25;101964.56;;;17.73;100.00
13013;BME280;22580;57.670;12.006;2022-10-12T05:48:52;101970.00;;;18.05;100.00
13013;BME280;22580;57.670;12.006;2022-10-12T05:51:18;101944.91;;;18.14;100.00
13013;BME280;22580;57.670;12.006;2022-10-12T05:53:46;101977.69;;;17.89;100.00
13013;BME280;22580;57.670;12.006;2022-10-12T05:56:16;101976.19;;;17.96;100.00
13013;BME280;22580;57.670;12.006;2022-10-12T05:58:44;101963.63;;;18.06;100.00
13013;BME280;22580;57.670;12.006;2022-10-12T06:01:12;101977.75;;;18.10;100.00
13013;BME280;22580;57.670;12.006;2022-10-12T06:03:39;101959.91;;;18.07;100.00
13013;BME280;22580;57.670;12.006;2022-10-12T06:06:07;101967.91;;;18.09;100.00
13013;BME280;22580;57.670;12.006;2022-10-12T06:08:34;101969.25;;;18.35;100.00
13013;BME280;22580;57.670;12.006;2022-10-12T06:11:01;101968.44;;;18.55;100.00
13013;BME280;22580;57.670;12.006;2022-10-12T06:13:29;101968.31;;;18.57;100.00
13013;BME280;22580;57.670;12.006;2022-10-12T06:15:57;101971.09;;;18.34;100.00
13013;BME280;22580;57.670;12.006;2022-10-12T06:18:24;101968.69;;;17.99;100.00
13013;BME280;22580;57.670;12.006;2022-10-12T06:20:52;101973.22;;;18.31;100.00
13013;BME280;22580;57.670;12.006;2022-10-12T06:23:23;101953.31;;;18.21;100.00
13013;BME280;22580;57.670;12.006;2022-10-12T06:25:51;101974.63;;;18.46;100.00
13013;BME280;22580;57.670;12.006;2022-10-12T06:28:20;101971.59;;;18.08;100.00
13013;BME280;22580;57.670;12.006;2022-10-12T06:30:53;101968.91;;;18.28;100.00
13013;BME280;22580;57.670;12.006;2022-10-12T06:33:21;101960.47;;;17.79;100.00
13013;BME280;22580;57.670;12.006;2022-10-12T06:35:49;101978.97;;;18.17;100.00
13013;BME280;22580;57.670;12.006;2022-10-12T06:38:16;101958.97;;;17.97;100.00
13013;BME280;22580;57.670;12.006;2022-10-12T06:40:43;101972.22;;;18.11;100.00
13013;BME280;22580;57.670;12.006;2022-10-12T06:43:11;101975.25;;;18.18;100.00
13013;BME280;22580;57.670;12.006;2022-10-12T06:45:38;101977.03;;;18.28;100.00
13013;BME280;22580;57.670;12.006;2022-10-12T06:48:07;101974.97;;;18.21;100.00
13013;BME280;22580;57.670;12.006;2022-10-12T06:50:35;101948.84;;;18.10;100.00
13013;BME280;22580;57.670;12.006;2022-10-12T06:53:02;101973.53;;;18.17;100.00
13013;BME280;22580;57.670;12.006;2022-10-12T06:55:37;101958.03;;;18.19;100.00
13013;BME280;22580;57.670;12.006;2022-10-12T06:58:04;101978.75;;;18.29;100.00
13013;BME280;22580;57.670;12.006;2022-10-12T07:00:35;101948.88;;;17.99;100.00
13013;BME280;22580;57.670;12.006;2022-10-12T07:03:03;101935.84;;;17.93;100.00
13013;BME280;22580;57.670;12.006;2022-10-12T07:05:48;101886.13;;;17.62;100.00
13013;BME280;22580;57.670;12.006;2022-10-12T07:08:15;101980.00;;;18.25;100.00
13013;BME280;22580;57.670;12.006;2022-10-12T07:10:42;101963.28;;;18.20;100.00
13013;BME280;22580;57.670;12.006;2022-10-12T07:13:12;101934.31;;;18.11;100.00
13013;BME280;22580;57.670;12.006;2022-10-12T07:15:40;101977.38;;;18.35;100.00
13013;BME280;22580;57.670;12.006;2022-10-12T07:18:07;101988.03;;;18.48;100.00
13013;BME280;22580;57.670;12.006;2022-10-12T07:20:34;101988.84;;;18.59;100.00
13013;BME280;22580;57.670;12.006;2022-10-12T07:23:06;101970.22;;;18.45;100.00
13013;BME280;22580;57.670;12.006;2022-10-12T07:25:33;101993.72;;;18.77;100.00
13013;BME280;22580;57.670;12.006;2022-10-12T07:28:02;101983.00;;;18.75;100.00
13013;BME280;22580;57.670;12.006;2022-10-12T07:30:31;101986.25;;;18.90;100.00
13013;BME280;22580;57.670;12.006;2022-10-12T07:33:01;101992.91;;;18.65;100.00
13013;BME280;22580;57.670;12.006;2022-10-12T07:35:28;101981.38;;;19.14;100.00
13013;BME280;22580;57.670;12.006;2022-10-12T07:37:56;101984.75;;;19.07;100.00
13013;BME280;22580;57.670;12.006;2022-10-12T07:40:25;101978.78;;;18.61;100.00
13013;BME280;22580;57.670;12.006;2022-10-12T07:42:52;101987.50;;;18.86;100.00
13013;BME280;22580;57.670;12.006;2022-10-12T07:45:19;101989.66;;;18.18;100.00
13013;BME280;22580;57.670;12.006;2022-10-12T07:47:46;101978.47;;;18.44;100.00
13013;BME280;22580;57.670;12.006;2022-10-12T07:50:13;102000.25;;;18.42;100.00
13013;BME280;22580;57.670;12.006;2022-10-12T07:52:40;101984.66;;;18.87;100.00
13013;BME280;22580;57.670;12.006;2022-10-12T07:55:07;101995.03;;;18.82;100.00
13013;BME280;22580;57.670;12.006;2022-10-12T07:57:36;101988.97;;;18.90;100.00
13013;BME280;22580;57.670;12.006;2022-10-12T08:00:06;101976.28;;;18.58;100.00
13013;BME280;22580;57.670;12.006;2022-10-12T08:02:34;101998.00;;;18.79;100.00
13013;BME280;22580;57.670;12.006;2022-10-12T08:05:01;101999.72;;;18.80;100.00
13013;BME280;22580;57.670;12.006;2022-10-12T08:07:28;102000.94;;;18.87;100.00
13013;BME280;22580;57.670;12.006;2022-10-12T08:09:55;101994.47;;;19.09;100.00
13013;BME280;22580;57.670;12.006;2022-10-12T08:12:22;101984.81;;;19.16;100.00
13013;BME280;22580;57.670;12.006;2022-10-12T08:14:51;102001.78;;;19.39;100.00
13013;BME280;22580;57.670;12.006;2022-10-12T08:17:17;101977.00;;;19.23;99.98
13013;BME280;22580;57.670;12.006;2022-10-12T08:19:44;102000.13;;;18.96;100.00
13013;BME280;22580;57.670;12.006;2022-10-12T08:22:11;101999.22;;;18.86;100.00
13013;BME280;22580;57.670;12.006;2022-10-12T08:24:38;102003.47;;;19.10;100.00
13013;BME280;22580;57.670;12.006;2022-10-12T08:27:05;101994.97;;;18.93;100.00
13013;BME280;22580;57.670;12.006;2022-10-12T08:29:32;102005.16;;;19.01;100.00
13013;BME280;22580;57.670;12.006;2022-10-12T08:32:01;102013.59;;;19.08;100.00
13013;BME280;22580;57.670;12.006;2022-10-12T08:34:28;102020.94;;;18.96;100.00
13013;BME280;22580;57.670;12.006;2022-10-12T08:36:57;102022.94;;;18.94;100.00
13013;BME280;22580;57.670;12.006;2022-10-12T08:39:24;102003.91;;;19.05;100.00
13013;BME280;22580;57.670;12.006;2022-10-12T08:42:07;102015.28;;;19.29;100.00
13013;BME280;22580;57.670;12.006;2022-10-12T08:44:51;102018.63;;;19.43;100.00
13013;BME280;22580;57.670;12.006;2022-10-12T08:47:31;102018.97;;;19.28;100.00
13013;BME280;22580;57.670;12.006;2022-10-12T08:50:03;102023.75;;;19.15;100.00
13013;BME280;22580;57.670;12.006;2022-10-12T08:52:33;102020.06;;;19.16;100.00
13013;BME280;22580;57.670;12.006;2022-10-12T08:55:05;102011.25;;;19.24;100.00
13013;BME280;22580;57.670;12.006;2022-10-12T08:57:42;102028.00;;;18.55;100.00
13013;BME280;22580;57.670;12.006;2022-10-12T09:00:12;102017.50;;;18.94;100.00
13013;BME280;22580;57.670;12.006;2022-10-12T09:03:06;102026.34;;;19.17;100.00
13013;BME280;22580;57.670;12.006;2022-10-12T09:05:39;102027.13;;;19.28;100.00
13013;BME280;22580;57.670;12.006;2022-10-12T09:08:13;102030.34;;;18.92;100.00
13013;BME280;22580;57.670;12.006;2022-10-12T09:10:53;102022.44;;;19.10;100.00
13013;BME280;22580;57.670;12.006;2022-10-12T09:13:30;102032.72;;;19.37;100.00
13013;BME280;22580;57.670;12.006;2022-10-12T09:16:08;102027.91;;;19.40;100.00
13013;BME280;22580;57.670;12.006;2022-10-12T09:18:41;102032.72;;;18.85;100.00
13013;BME280;22580;57.670;12.006;2022-10-12T09:21:16;102012.88;;;20.16;98.43
13013;BME280;22580;57.670;12.006;2022-10-12T09:23:43;102028.25;;;20.56;97.15
13013;BME280;22580;57.670;12.006;2022-10-12T09:26:14;102025.41;;;20.67;96.53
13013;BME280;22580;57.670;12.006;2022-10-12T09:28:43;102020.34;;;20.91;94.54
13013;BME280;22580;57.670;12.006;2022-10-12T09:31:28;102028.50;;;20.34;94.27
13013;BME280;22580;57.670;12.006;2022-10-12T09:33:59;102030.91;;;20.27;96.47
13013;BME280;22580;57.670;12.006;2022-10-12T09:36:30;102027.69;;;20.52;94.94
13013;BME280;22580;57.670;12.006;2022-10-12T09:38:59;102027.97;;;20.78;95.92
13013;BME280;22580;57.670;12.006;2022-10-12T09:41:31;102033.94;;;20.91;93.98
13013;BME280;22580;57.670;12.006;2022-10-12T09:44:01;102025.63;;;20.83;93.18
13013;BME280;22580;57.670;12.006;2022-10-12T09:46:36;102035.13;;;20.79;92.95
13013;BME280;22580;57.670;12.006;2022-10-12T09:49:06;102030.72;;;21.35;92.28
13013;BME280;22580;57.670;12.006;2022-10-12T09:51:34;102034.88;;;21.39;88.94
13013;BME280;22580;57.670;12.006;2022-10-12T09:54:02;102027.47;;;21.12;90.05
13013;BME280;22580;57.670;12.006;2022-10-12T09:56:39;102037.06;;;21.25;91.00
13013;BME280;22580;57.670;12.006;2022-10-12T09:59:22;102034.44;;;21.43;91.46
13013;BME280;22580;57.670;12.006;2022-10-12T10:02:03;102027.66;;;21.57;90.27
13013;BME280;22580;57.670;12.006;2022-10-12T10:04:35;102039.56;;;21.46;90.08
13013;BME280;22580;57.670;12.006;2022-10-12T10:07:13;102022.19;;;21.84;89.00
13013;BME280;22580;57.670;12.006;2022-10-12T10:09:45;102025.16;;;21.36;89.63
13013;BME280;22580;57.670;12.006;2022-10-12T10:12:20;102035.75;;;21.30;89.79
13013;BME280;22580;57.670;12.006;2022-10-12T10:14:49;102030.84;;;21.43;90.62
13013;BME280;22580;57.670;12.006;2022-10-12T10:17:23;102031.06;;;21.86;88.68
13013;BME280;22580;57.670;12.006;2022-10-12T10:19:53;102028.69;;;21.74;88.04
13013;BME280;22580;57.670;12.006;2022-10-12T10:22:22;102041.56;;;21.54;87.52
13013;BME280;22580;57.670;12.006;2022-10-12T10:24:50;102038.50;;;21.10;91.88
13013;BME280;22580;57.670;12.006;2022-10-12T10:27:34;102045.47;;;21.42;89.07
13013;BME280;22580;57.670;12.006;2022-10-12T10:30:22;102037.16;;;21.43;90.91
13013;BME280;22580;57.670;12.006;2022-10-12T10:33:07;102044.03;;;21.38;90.44
13013;BME280;22580;57.670;12.006;2022-10-12T10:35:56;102022.94;;;21.49;89.32
13013;BME280;22580;57.670;12.006;2022-10-12T10:38:50;102036.75;;;21.38;90.15
13013;BME280;22580;57.670;12.006;2022-10-12T10:41:30;102039.78;;;21.06;89.37
13013;BME280;22580;57.670;12.006;2022-10-12T10:44:40;101999.41;;;21.31;88.60
13013;BME280;22580;57.670;12.006;2022-10-12T10:47:17;101952.41;;;21.38;85.76
13013;BME280;22580;57.670;12.006;2022-10-12T10:49:46;102035.44;;;21.42;85.37
13013;BME280;22580;57.670;12.006;2022-10-12T10:52:21;102030.69;;;21.44;85.82
13013;BME280;22580;57.670;12.006;2022-10-12T10:55:05;102037.19;;;21.34;84.49
13013;BME280;22580;57.670;12.006;2022-10-12T10:57:43;102030.31;;;21.30;84.16
13013;BME280;22580;57.670;12.006;2022-10-12T11:00:20;102024.06;;;20.81;84.91
13013;BME280;22580;57.670;12.006;2022-10-12T11:02:54;102028.22;;;20.94;86.11
13013;BME280;22580;57.670;12.006;2022-10-12T11:05:25;102026.91;;;20.99;85.18
13013;BME280;22580;57.670;12.006;2022-10-12T11:07:56;102022.91;;;20.93;85.84
13013;BME280;22580;57.670;12.006;2022-10-12T11:10:27;102019.50;;;20.81;87.37
13013;BME280;22580;57.670;12.006;2022-10-12T11:13:00;102006.59;;;20.93;88.11
13013;BME280;22580;57.670;12.006;2022-10-12T11:18:31;102004.94;;;20.73;89.50
13013;BME280;22580;57.670;12.006;2022-10-12T11:21:03;102006.09;;;20.70;89.14
13013;BME280;22580;57.670;12.006;2022-10-12T11:23:39;102020.31;;;21.01;88.88
13013;BME280;22580;57.670;12.006;2022-10-12T11:26:22;101999.38;;;20.74;88.29
13013;BME280;22580;57.670;12.006;2022-10-12T11:28:52;102014.03;;;21.01;87.27
13013;BME280;22580;57.670;12.006;2022-10-12T11:31:22;102025.19;;;20.98;86.98
13013;BME280;22580;57.670;12.006;2022-10-12T11:33:51;102010.84;;;21.34;85.86
13013;BME280;22580;57.670;12.006;2022-10-12T11:36:22;102018.28;;;21.32;84.56
13013;BME280;22580;57.670;12.006;2022-10-12T11:38:54;102013.88;;;21.12;85.23
13013;BME280;22580;57.670;12.006;2022-10-12T11:41:26;102020.91;;;20.95;85.70
13013;BME280;22580;57.670;12.006;2022-10-12T11:44:00;102013.78;;;20.84;85.67
13013;BME280;22580;57.670;12.006;2022-10-12T11:46:34;102012.75;;;20.85;86.95
13013;BME280;22580;57.670;12.006;2022-10-12T11:49:08;102004.69;;;21.13;86.28
13013;BME280;22580;57.670;12.006;2022-10-12T11:51:39;102003.69;;;21.33;84.60
13013;BME280;22580;57.670;12.006;2022-10-12T11:54:15;101993.13;;;21.11;85.17
13013;BME280;22580;57.670;12.006;2022-10-12T11:56:45;102007.44;;;21.22;84.94
13013;BME280;22580;57.670;12.006;2022-10-12T11:59:19;102009.63;;;20.80;84.45
13013;BME280;22580;57.670;12.006;2022-10-12T12:01:59;102003.09;;;20.73;85.52
13013;BME280;22580;57.670;12.006;2022-10-12T12:04:29;102004.50;;;20.77;86.48
13013;BME280;22580;57.670;12.006;2022-10-12T12:06:59;102010.16;;;21.13;85.11
13013;BME280;22580;57.670;12.006;2022-10-12T12:09:40;102006.56;;;21.22;85.24
13013;BME280;22580;57.670;12.006;2022-10-12T12:12:25;101999.25;;;21.32;83.60
13013;BME280;22580;57.670;12.006;2022-10-12T12:15:01;102013.75;;;21.04;83.62
13013;BME280;22580;57.670;12.006;2022-10-12T12:17:29;102001.41;;;21.09;83.76
13013;BME280;22580;57.670;12.006;2022-10-12T12:19:57;102000.41;;;19.85;88.22
13013;BME280;22580;57.670;12.006;2022-10-12T12:22:32;101991.44;;;20.13;88.43
13013;BME280;22580;57.670;12.006;2022-10-12T12:25:16;101985.34;;;20.50;87.64
13013;BME280;22580;57.670;12.006;2022-10-12T12:27:47;101992.50;;;20.80;86.85
13013;BME280;22580;57.670;12.006;2022-10-12T12:30:36;101988.50;;;20.55;88.10
13013;BME280;22580;57.670;12.006;2022-10-12T12:33:25;101990.09;;;19.79;90.94
13013;BME280;22580;57.670;12.006;2022-10-12T12:35:54;101984.13;;;19.94;91.32
13013;BME280;22580;57.670;12.006;2022-10-12T12:38:25;101981.50;;;20.43;88.80
13013;BME280;22580;57.670;12.006;2022-10-12T12:41:03;101979.78;;;20.71;87.34
13013;BME280;22580;57.670;12.006;2022-10-12T12:43:52;101980.19;;;20.37;88.63
13013;BME280;22580;57.670;12.006;2022-10-12T12:46:21;101981.44;;;20.81;87.48
13013;BME280;22580;57.670;12.006;2022-10-12T12:48:59;101975.88;;;20.15;90.61
13013;BME280;22580;57.670;12.006;2022-10-12T12:51:38;101985.41;;;19.81;91.40
13013;BME280;22580;57.670;12.006;2022-10-12T12:54:18;101983.78;;;20.47;88.71
13013;BME280;22580;57.670;12.006;2022-10-12T13:00:07;101984.59;;;20.86;87.07
13013;BME280;22580;57.670;12.006;2022-10-12T13:03:16;101972.13;;;20.93;87.06
13013;BME280;22580;57.670;12.006;2022-10-12T13:09:18;101978.00;;;20.89;87.76
13013;BME280;22580;57.670;12.006;2022-10-12T13:12:19;101981.47;;;20.33;88.56